Aviation Digital Data Service (ADDS)

Output produced by METARs form (1026 UTC 16 August 2018)
found at http://aviationweather.gov/adds/metars/
 
KCLL 160520Z 1606/1706 18013KT P6SM SKC 
     FM160900 18004KT P6SM SCT015 
     FM161200 18007KT P6SM SCT030 
     FM161800 19010KT P6SM FEW050